createdAt,value
2019-03-26T00:00:33.061Z,2.60
2019-03-26T00:03:02.423Z,2.43
2019-03-26T00:05:31.800Z,2.97
2019-03-26T00:08:01.165Z,2.47
2019-03-26T00:10:30.828Z,2.50
2019-03-26T00:13:00.197Z,2.40
2019-03-26T00:15:29.570Z,2.87
2019-03-26T00:17:59.180Z,2.63
2019-03-26T00:20:28.552Z,3.80
2019-03-26T00:22:57.930Z,2.40
2019-03-26T00:25:27.310Z,2.33
2019-03-26T00:27:56.686Z,2.57
2019-03-26T00:30:26.062Z,2.53
2019-03-26T00:32:55.752Z,2.33
2019-03-26T00:35:25.115Z,2.75
2019-03-26T00:38:06.321Z,2.23
2019-03-26T00:40:35.690Z,2.70
2019-03-26T00:43:05.085Z,2.20
2019-03-26T00:45:34.459Z,2.23
2019-03-26T00:48:03.842Z,3.50
2019-03-26T00:50:33.208Z,2.50
2019-03-26T00:53:02.581Z,2.67
2019-03-26T00:55:32.246Z,1.90
2019-03-26T00:58:01.960Z,2.80
2019-03-26T01:00:41.435Z,2.50
2019-03-26T01:03:11.537Z,2.33
2019-03-26T01:05:41.210Z,2.40
2019-03-26T01:08:10.722Z,1.93
2019-03-26T01:10:40.156Z,2.87
2019-03-26T01:13:09.544Z,2.27
2019-03-26T01:15:39.395Z,2.37
2019-03-26T01:18:08.908Z,2.70
2019-03-26T01:20:38.275Z,2.50
2019-03-26T01:23:07.960Z,2.37
2019-03-26T01:25:39.604Z,3.17
2019-03-26T01:28:08.504Z,3.13
2019-03-26T01:30:37.864Z,2.40
2019-03-26T01:33:07.328Z,2.83
2019-03-26T01:35:36.704Z,2.20
2019-03-26T01:38:06.081Z,2.73
2019-03-26T01:40:35.445Z,2.30
2019-03-26T01:43:04.891Z,3.13
2019-03-26T01:45:34.265Z,2.40
2019-03-26T01:48:03.645Z,2.53
2019-03-26T01:50:33.007Z,2.40
2019-03-26T01:53:02.380Z,2.35
2019-03-26T01:55:31.920Z,2.70
2019-03-26T01:58:01.296Z,2.50
2019-03-26T02:00:30.682Z,2.50
2019-03-26T02:03:00.043Z,2.43
2019-03-26T02:05:29.420Z,2.47
2019-03-26T02:07:59.140Z,2.20
2019-03-26T02:10:28.526Z,2.30
2019-03-26T02:12:57.912Z,3.50
2019-03-26T02:15:31.823Z,2.30
2019-03-26T02:18:01.817Z,2.60
2019-03-26T02:20:31.325Z,2.93
2019-03-26T02:23:00.762Z,2.67
2019-03-26T02:25:30.482Z,2.72
2019-03-26T02:27:59.917Z,2.73
2019-03-26T02:30:29.854Z,2.13
2019-03-26T02:32:59.557Z,2.30
2019-03-26T02:35:29.728Z,2.10
2019-03-26T02:37:59.668Z,2.72
2019-03-26T02:40:29.747Z,2.35
2019-03-26T02:42:59.126Z,2.33
2019-03-26T02:45:28.502Z,2.30
2019-03-26T02:47:57.878Z,2.30
2019-03-26T02:50:27.253Z,3.37
2019-03-26T02:52:56.612Z,3.33
2019-03-26T02:55:26.009Z,1.90
2019-03-26T02:57:55.367Z,2.80
2019-03-26T03:00:24.751Z,1.70
2019-03-26T03:02:54.382Z,2.67
2019-03-26T03:05:34.909Z,2.43
2019-03-26T03:07:54.846Z,2.17
2019-03-26T03:10:24.241Z,2.58
2019-03-26T03:12:53.605Z,2.20
2019-03-26T03:15:22.991Z,2.10
2019-03-26T03:17:52.360Z,3.02
2019-03-26T03:20:21.748Z,2.97
2019-03-26T03:22:51.109Z,1.90
2019-03-26T03:25:20.495Z,3.10
2019-03-26T03:27:50.142Z,2.27
2019-03-26T03:30:40.394Z,2.90
2019-03-26T03:33:10.729Z,3.75
2019-03-26T03:35:51.990Z,2.40
2019-03-26T03:38:11.851Z,2.77
2019-03-26T03:40:41.235Z,2.43
2019-03-26T03:43:10.668Z,2.00
2019-03-26T03:45:40.993Z,3.50
2019-03-26T03:48:11.837Z,2.13
2019-03-26T03:50:43.414Z,2.50
2019-03-26T03:53:17.398Z,2.17
2019-03-26T03:55:48.107Z,2.10
2019-03-26T03:58:19.269Z,3.00
2019-03-26T04:00:48.652Z,2.57
2019-03-26T04:03:18.026Z,2.97
2019-03-26T04:05:48.335Z,2.60
2019-03-26T04:08:18.453Z,3.50
2019-03-26T04:10:48.386Z,2.73
2019-03-26T04:13:18.462Z,2.05
2019-03-26T04:15:48.517Z,2.55
2019-03-26T04:18:17.882Z,2.27
2019-03-26T04:20:47.259Z,2.80
2019-03-26T04:23:16.636Z,3.17
2019-03-26T04:25:46.009Z,2.50
2019-03-26T04:28:15.445Z,2.23
2019-03-26T04:30:44.757Z,2.50
2019-03-26T04:33:14.150Z,2.90
2019-03-26T04:35:43.860Z,2.45
2019-03-26T04:38:13.251Z,2.25
2019-03-26T04:40:42.619Z,2.93
2019-03-26T04:43:12.244Z,2.63
2019-03-26T04:45:41.613Z,2.67
2019-03-26T04:48:10.994Z,2.67
2019-03-26T04:50:40.382Z,2.25
2019-03-26T04:53:09.750Z,2.50
2019-03-26T04:55:40.393Z,2.97
2019-03-26T04:58:10.271Z,2.70
2019-03-26T05:00:40.281Z,2.58
2019-03-26T05:03:10.386Z,2.65
2019-03-26T05:05:39.772Z,2.87
2019-03-26T05:08:09.153Z,2.50
2019-03-26T05:10:38.528Z,3.05
2019-03-26T05:13:08.243Z,2.73
2019-03-26T05:15:37.614Z,2.57
2019-03-26T05:18:06.993Z,2.30
2019-03-26T05:20:36.365Z,2.50
2019-03-26T05:23:05.764Z,2.57
2019-03-26T05:25:35.460Z,3.10
2019-03-26T05:28:05.725Z,2.95
2019-03-26T05:30:35.099Z,2.80
2019-03-26T05:33:04.496Z,2.60
2019-03-26T05:35:33.850Z,2.52
2019-03-26T05:38:03.239Z,3.07
2019-03-26T05:40:32.891Z,2.70
2019-03-26T05:43:02.280Z,2.50
2019-03-26T05:45:31.641Z,2.73
2019-03-26T05:48:01.019Z,2.90
2019-03-26T05:50:30.391Z,2.60
2019-03-26T05:52:59.762Z,2.93
2019-03-26T05:55:29.125Z,2.33
2019-03-26T05:57:58.502Z,2.67
2019-03-26T06:00:27.881Z,3.03
2019-03-26T06:02:57.291Z,2.77
2019-03-26T06:05:26.630Z,2.80
2019-03-26T06:07:56.002Z,2.80
2019-03-26T06:10:25.380Z,4.08
2019-03-26T06:12:54.760Z,3.20
2019-03-26T06:15:24.143Z,2.90
2019-03-26T06:17:53.525Z,3.27
2019-03-26T06:20:22.906Z,3.13
2019-03-26T06:22:53.411Z,3.67
2019-03-26T06:25:22.806Z,4.33
2019-03-26T06:27:52.155Z,3.20
2019-03-26T06:30:21.534Z,4.00
2019-03-26T06:32:50.900Z,3.30
2019-03-26T06:35:20.284Z,3.40
2019-03-26T06:37:49.704Z,3.62
2019-03-26T06:40:19.152Z,3.17
2019-03-26T06:42:48.514Z,3.97
2019-03-26T06:45:18.173Z,4.60
2019-03-26T06:47:47.543Z,3.60
2019-03-26T06:50:17.166Z,4.13
2019-03-26T06:52:46.537Z,4.03
2019-03-26T06:55:16.130Z,3.60
2019-03-26T06:57:45.497Z,3.77
2019-03-26T07:00:17.142Z,3.63
2019-03-26T07:02:46.514Z,3.70
2019-03-26T07:05:15.887Z,4.60
2019-03-26T07:07:45.553Z,3.20
2019-03-26T07:10:18.172Z,3.90
2019-03-26T07:12:47.546Z,4.50
2019-03-26T07:15:16.921Z,3.03
2019-03-26T07:17:46.317Z,2.97
2019-03-26T07:20:15.891Z,2.67
2019-03-26T07:22:45.544Z,2.80
2019-03-26T07:25:15.464Z,2.93
2019-03-26T07:27:44.901Z,2.30
2019-03-26T07:30:24.407Z,3.17
2019-03-26T07:32:53.778Z,2.50
2019-03-26T07:35:23.155Z,2.37
2019-03-26T07:37:52.520Z,2.52
2019-03-26T07:40:21.900Z,2.00
2019-03-26T07:42:51.266Z,2.17
2019-03-26T07:45:20.940Z,2.80
2019-03-26T07:47:50.271Z,2.20
2019-03-26T07:50:19.639Z,2.57
2019-03-26T07:52:49.032Z,2.30
2019-03-26T07:55:18.406Z,2.17
2019-03-26T07:57:47.781Z,2.83
2019-03-26T08:00:20.593Z,2.17
2019-03-26T08:02:49.970Z,2.50
2019-03-26T08:05:29.349Z,2.20
2019-03-26T08:07:58.084Z,2.47
2019-03-26T08:10:21.837Z,2.27
2019-03-26T08:12:51.255Z,2.98
2019-03-26T08:15:20.675Z,2.90
2019-03-26T08:17:50.038Z,2.43
2019-03-26T08:20:19.418Z,3.17
2019-03-26T08:22:48.795Z,3.43
2019-03-26T08:25:18.162Z,2.77
2019-03-26T08:27:47.543Z,3.77
2019-03-26T08:30:17.047Z,2.80
2019-03-26T08:32:46.428Z,2.72
2019-03-26T08:35:15.801Z,2.33
2019-03-26T08:37:45.197Z,2.58
2019-03-26T08:40:14.907Z,2.52
2019-03-26T08:42:44.296Z,2.58
2019-03-26T08:45:14.083Z,2.53
2019-03-26T08:47:43.466Z,2.43
2019-03-26T08:50:14.242Z,2.10
2019-03-26T08:52:43.623Z,1.70
2019-03-26T08:55:13.342Z,2.00
2019-03-26T08:57:42.728Z,1.90
2019-03-26T09:00:13.601Z,2.10
2019-03-26T09:02:42.985Z,1.63
2019-03-26T09:05:12.663Z,2.00
2019-03-26T09:07:42.327Z,2.20
2019-03-26T09:10:12.508Z,1.53
2019-03-26T09:12:41.892Z,2.03
2019-03-26T09:15:15.211Z,2.40
2019-03-26T09:17:44.953Z,2.03
2019-03-26T09:20:15.174Z,2.00
2019-03-26T09:22:44.521Z,2.43
2019-03-26T09:25:14.404Z,2.07
2019-03-26T09:27:43.788Z,1.83
2019-03-26T09:30:14.114Z,2.33
2019-03-26T09:32:43.487Z,1.80
2019-03-26T09:35:13.165Z,2.50
2019-03-26T09:37:42.838Z,2.87
2019-03-26T09:40:12.717Z,2.40
2019-03-26T09:42:42.097Z,2.55
2019-03-26T09:45:13.870Z,2.73
2019-03-26T09:47:43.236Z,3.33
2019-03-26T09:50:14.273Z,3.10
2019-03-26T09:52:43.645Z,3.30
2019-03-26T09:55:13.235Z,3.23
2019-03-26T09:57:42.868Z,2.57
2019-03-26T10:00:13.261Z,2.83
2019-03-26T10:02:43.555Z,3.00
2019-03-26T10:05:13.429Z,2.30
2019-03-26T10:07:42.798Z,2.33
2019-03-26T10:10:15.059Z,2.80
2019-03-26T10:12:44.431Z,3.22
2019-03-26T10:15:14.396Z,2.98
2019-03-26T10:17:43.768Z,3.45
2019-03-26T10:20:13.677Z,2.63
2019-03-26T10:22:43.038Z,2.57
2019-03-26T10:25:12.632Z,2.67
2019-03-26T10:27:41.992Z,2.67
2019-03-26T10:30:15.558Z,2.50
2019-03-26T10:32:44.942Z,2.57
2019-03-26T10:35:14.670Z,1.90
2019-03-26T10:37:44.045Z,1.97
2019-03-26T10:40:18.033Z,2.10
2019-03-26T10:42:47.400Z,2.03
2019-03-26T10:45:16.833Z,2.70
2019-03-26T10:47:46.204Z,2.13
2019-03-26T10:50:15.638Z,2.23
2019-03-26T10:52:45.643Z,2.27
2019-03-26T10:55:15.674Z,2.45
2019-03-26T10:57:45.678Z,2.15
2019-03-26T11:00:16.633Z,2.10
2019-03-26T11:02:46.003Z,2.07
2019-03-26T11:05:15.821Z,2.43
2019-03-26T11:07:45.196Z,1.95
2019-03-26T11:10:14.812Z,2.00
2019-03-26T11:12:44.178Z,2.53
2019-03-26T11:15:13.874Z,2.02
2019-03-26T11:17:43.246Z,2.65
2019-03-26T11:20:12.935Z,2.70
2019-03-26T11:22:42.313Z,2.43
2019-03-26T11:25:12.535Z,2.30
2019-03-26T11:27:41.854Z,2.40
2019-03-26T11:30:12.247Z,1.90
2019-03-26T11:32:41.658Z,2.43
2019-03-26T11:35:11.505Z,2.30
2019-03-26T11:37:40.872Z,1.83
2019-03-26T11:40:10.961Z,1.87
2019-03-26T11:42:40.331Z,2.08
2019-03-26T11:45:10.823Z,3.20
2019-03-26T11:47:41.060Z,2.50
2019-03-26T11:50:12.625Z,2.33
2019-03-26T11:52:42.044Z,1.83
2019-03-26T11:55:12.090Z,2.17
2019-03-26T11:57:41.466Z,2.43
2019-03-26T12:00:15.359Z,2.10
2019-03-26T12:02:44.741Z,2.73
2019-03-26T12:05:14.518Z,2.23
2019-03-26T12:07:43.904Z,2.05
2019-03-26T12:10:13.686Z,2.37
2019-03-26T12:12:43.102Z,2.33
2019-03-26T12:15:14.173Z,2.53
2019-03-26T12:17:43.569Z,3.30
2019-03-26T12:20:13.549Z,2.83
2019-03-26T12:22:42.928Z,2.70
2019-03-26T12:25:12.467Z,2.87
2019-03-26T12:27:41.854Z,2.73
2019-03-26T12:30:12.576Z,2.43
2019-03-26T12:32:42.039Z,2.80
2019-03-26T12:35:16.025Z,3.07
2019-03-26T12:37:45.398Z,2.40
2019-03-26T12:40:14.844Z,2.80
2019-03-26T12:42:44.238Z,2.93
2019-03-26T12:45:13.917Z,2.70
2019-03-26T12:47:43.304Z,3.43
2019-03-26T12:50:13.116Z,3.67
2019-03-26T12:52:42.492Z,3.62
2019-03-26T12:55:12.310Z,2.95
2019-03-26T12:57:41.688Z,2.40
2019-03-26T13:00:11.586Z,2.30
2019-03-26T13:02:40.949Z,2.37
2019-03-26T13:05:10.806Z,2.70
2019-03-26T13:07:40.203Z,3.00
2019-03-26T13:10:14.060Z,2.67
2019-03-26T13:12:41.472Z,2.33
2019-03-26T13:15:11.162Z,2.80
2019-03-26T13:17:40.543Z,2.47
2019-03-26T13:20:10.138Z,2.80
2019-03-26T13:22:39.780Z,2.80
2019-03-26T13:25:10.304Z,2.50
2019-03-26T13:27:39.697Z,2.40
2019-03-26T13:30:11.389Z,2.40
2019-03-26T13:32:41.605Z,2.30
2019-03-26T13:35:12.047Z,2.62
2019-03-26T13:37:41.725Z,2.07
2019-03-26T13:40:12.202Z,2.20
2019-03-26T13:42:41.572Z,2.70
2019-03-26T13:45:12.254Z,2.10
2019-03-26T13:47:41.632Z,2.00
2019-03-26T13:50:12.957Z,2.43
2019-03-26T13:52:42.335Z,2.50
2019-03-26T13:55:12.103Z,2.13
2019-03-26T13:57:41.492Z,3.07
2019-03-26T14:00:12.189Z,2.43
2019-03-26T14:02:41.554Z,2.97
2019-03-26T14:05:27.671Z,2.77
2019-03-26T14:07:57.040Z,2.87
2019-03-26T14:10:39.869Z,3.73
2019-03-26T14:12:57.593Z,3.35
2019-03-26T14:15:26.966Z,3.13
2019-03-26T14:17:56.346Z,3.17
2019-03-26T14:20:25.758Z,3.13
2019-03-26T14:22:55.545Z,3.00
2019-03-26T14:25:25.686Z,2.60
2019-03-26T14:27:55.439Z,2.15
2019-03-26T14:30:40.347Z,2.72
2019-03-26T14:33:10.039Z,2.83
2019-03-26T14:35:39.410Z,2.37
2019-03-26T14:38:08.860Z,2.13
2019-03-26T14:40:38.691Z,2.62
2019-03-26T14:43:08.822Z,2.20
2019-03-26T14:45:40.947Z,2.50
2019-03-26T14:48:09.732Z,2.13
2019-03-26T14:50:39.171Z,2.37
2019-03-26T14:53:08.800Z,2.40
2019-03-26T14:55:38.176Z,2.90
2019-03-26T14:58:07.626Z,2.90
2019-03-26T15:00:37.325Z,3.07
2019-03-26T15:03:07.063Z,3.43
2019-03-26T15:05:36.420Z,2.80
2019-03-26T15:08:05.874Z,2.53
2019-03-26T15:10:35.252Z,3.00
2019-03-26T15:13:04.704Z,2.70
2019-03-26T15:15:36.597Z,3.30
2019-03-26T15:18:05.172Z,2.87
2019-03-26T15:20:34.618Z,3.23
2019-03-26T15:23:04.615Z,2.80
2019-03-26T15:25:33.991Z,2.50
2019-03-26T15:28:03.379Z,2.57
2019-03-26T15:30:32.755Z,2.90
2019-03-26T15:33:02.129Z,2.77
2019-03-26T15:35:31.759Z,3.20
2019-03-26T15:38:01.139Z,3.00
2019-03-26T15:40:30.526Z,2.93
2019-03-26T15:42:59.894Z,3.13
2019-03-26T15:45:29.279Z,3.13
2019-03-26T15:47:58.955Z,2.52
2019-03-26T15:50:43.207Z,2.30
2019-03-26T15:53:12.945Z,3.00
2019-03-26T15:55:42.721Z,2.70
2019-03-26T15:58:12.236Z,2.27
2019-03-26T16:00:41.628Z,3.37
2019-03-26T16:03:11.022Z,2.97
2019-03-26T16:05:40.468Z,2.60
2019-03-26T16:08:09.846Z,3.23
2019-03-26T16:10:39.236Z,3.20
2019-03-26T16:13:08.609Z,3.20
2019-03-26T16:15:44.389Z,3.03
2019-03-26T16:18:09.489Z,4.27
2019-03-26T16:20:58.548Z,2.63
2019-03-26T16:23:27.918Z,3.00
2019-03-26T16:25:57.300Z,3.17
2019-03-26T16:28:26.666Z,2.80
2019-03-26T16:30:56.082Z,2.83
2019-03-26T16:33:25.447Z,3.00
2019-03-26T16:35:54.829Z,2.93
2019-03-26T16:38:24.203Z,3.40
2019-03-26T16:40:53.585Z,3.05
2019-03-26T16:43:22.962Z,3.17
2019-03-26T16:45:52.926Z,3.33
2019-03-26T16:48:22.303Z,3.33
2019-03-26T16:50:51.760Z,4.40
2019-03-26T16:53:21.131Z,3.50
2019-03-26T16:55:50.505Z,2.20
2019-03-26T16:58:19.885Z,3.15
2019-03-26T17:00:49.281Z,2.50
2019-03-26T17:03:30.637Z,2.80
2019-03-26T17:05:49.998Z,3.37
2019-03-26T17:08:22.494Z,3.35
2019-03-26T17:10:50.499Z,2.90
2019-03-26T17:13:19.879Z,2.80
2019-03-26T17:15:49.248Z,2.70
2019-03-26T17:18:18.633Z,3.10
2019-03-26T17:20:48.008Z,4.30
2019-03-26T17:23:17.485Z,3.45
2019-03-26T17:25:47.585Z,2.67
2019-03-26T17:28:17.692Z,3.02
2019-03-26T17:30:47.066Z,3.30
2019-03-26T17:33:16.449Z,3.00
2019-03-26T17:35:46.074Z,2.97
2019-03-26T17:38:15.703Z,4.23
2019-03-26T17:40:45.159Z,7.87
2019-03-26T17:43:14.580Z,11.00
2019-03-26T17:45:43.984Z,6.27
2019-03-26T17:48:13.349Z,5.10
2019-03-26T17:50:42.719Z,4.57
2019-03-26T17:53:12.498Z,4.90
2019-03-26T17:55:42.112Z,4.08
2019-03-26T17:58:11.774Z,4.60
2019-03-26T18:00:44.329Z,4.20
2019-03-26T18:03:25.705Z,3.87
2019-03-26T18:05:44.886Z,4.57
2019-03-26T18:08:14.276Z,3.97
2019-03-26T18:10:44.010Z,4.03
2019-03-26T18:13:13.391Z,4.05
2019-03-26T18:15:42.762Z,4.00
2019-03-26T18:18:12.157Z,4.33
2019-03-26T18:20:41.556Z,4.10
2019-03-26T18:23:11.879Z,4.53
2019-03-26T18:25:41.328Z,4.57
2019-03-26T18:28:11.681Z,3.70
2019-03-26T18:30:41.118Z,4.17
2019-03-26T18:33:10.798Z,4.30
2019-03-26T18:35:40.144Z,3.70
2019-03-26T18:38:09.535Z,4.80
2019-03-26T18:40:38.957Z,4.70
2019-03-26T18:43:08.297Z,4.70
2019-03-26T18:45:37.686Z,4.83
2019-03-26T18:48:07.055Z,4.90
2019-03-26T18:50:36.463Z,5.43
2019-03-26T18:53:05.844Z,5.30
2019-03-26T18:55:35.219Z,5.47
2019-03-26T18:58:04.999Z,5.60
2019-03-26T19:00:37.648Z,4.97
2019-03-26T19:03:08.636Z,5.53
2019-03-26T19:05:38.012Z,5.97
2019-03-26T19:08:07.538Z,5.20
2019-03-26T19:10:38.052Z,5.10
2019-03-26T19:13:18.627Z,5.33
2019-03-26T19:15:38.873Z,4.90
2019-03-26T19:18:08.606Z,6.20
2019-03-26T19:20:38.240Z,6.37
2019-03-26T19:23:07.618Z,6.73
2019-03-26T19:25:38.214Z,7.10
2019-03-26T19:28:08.341Z,7.08
2019-03-26T19:30:38.470Z,6.70
2019-03-26T19:33:08.025Z,5.63
2019-03-26T19:35:37.388Z,5.78
2019-03-26T19:38:06.828Z,4.67
2019-03-26T19:40:36.512Z,5.23
2019-03-26T19:43:11.313Z,5.40
2019-03-26T19:45:37.808Z,6.30
2019-03-26T19:48:07.198Z,5.03
2019-03-26T19:50:36.588Z,5.63
2019-03-26T19:53:05.972Z,5.60
2019-03-26T19:55:35.362Z,5.10
2019-03-26T19:58:04.817Z,4.60
2019-03-26T20:00:34.205Z,4.93
2019-03-26T20:03:03.585Z,4.97
2019-03-26T20:05:35.311Z,6.00
2019-03-26T20:08:04.110Z,5.43
2019-03-26T20:10:33.495Z,5.50
2019-03-26T20:13:02.864Z,5.00
2019-03-26T20:15:32.625Z,5.97
2019-03-26T20:18:02.334Z,5.97
2019-03-26T20:20:32.049Z,6.20
2019-03-26T20:23:01.666Z,5.00
2019-03-26T20:25:31.066Z,5.30
2019-03-26T20:28:00.440Z,5.03
2019-03-26T20:30:29.817Z,4.57
2019-03-26T20:32:59.192Z,4.80
2019-03-26T20:35:29.514Z,6.73
2019-03-26T20:37:58.893Z,6.33
2019-03-26T20:40:28.295Z,6.15
2019-03-26T20:42:58.407Z,5.33
2019-03-26T20:45:28.632Z,5.53
2019-03-26T20:47:58.000Z,5.80
2019-03-26T20:50:27.539Z,4.87
2019-03-26T20:52:56.977Z,4.83
2019-03-26T20:55:32.923Z,4.67
2019-03-26T20:58:02.882Z,5.07
2019-03-26T21:00:41.558Z,5.50
2019-03-26T21:03:10.993Z,5.60
2019-03-26T21:05:40.448Z,6.10
2019-03-26T21:08:09.900Z,5.17
2019-03-26T21:10:39.564Z,6.40
2019-03-26T21:13:08.936Z,7.90
2019-03-26T21:15:38.315Z,7.30
2019-03-26T21:18:07.705Z,6.25
2019-03-26T21:20:37.078Z,5.73
2019-03-26T21:23:06.470Z,5.80
2019-03-26T21:25:36.082Z,5.23
2019-03-26T21:28:05.883Z,5.93
2019-03-26T21:30:35.262Z,5.77
2019-03-26T21:33:04.793Z,5.87
2019-03-26T21:35:34.232Z,5.73
2019-03-26T21:38:03.618Z,6.03
2019-03-26T21:40:33.010Z,6.50
2019-03-26T21:43:02.400Z,6.30
2019-03-26T21:45:37.393Z,5.87
2019-03-26T21:48:07.868Z,6.07
2019-03-26T21:50:37.297Z,6.43
2019-03-26T21:53:06.757Z,6.30
2019-03-26T21:55:36.136Z,6.93
2019-03-26T21:58:05.667Z,6.37
2019-03-26T22:00:35.448Z,6.70
2019-03-26T22:03:04.907Z,6.07
2019-03-26T22:05:34.583Z,6.70
2019-03-26T22:08:04.508Z,6.70
2019-03-26T22:10:33.897Z,7.23
2019-03-26T22:13:03.310Z,8.10
2019-03-26T22:15:32.711Z,8.10
2019-03-26T22:18:02.151Z,7.07
2019-03-26T22:20:31.529Z,8.00
2019-03-26T22:23:01.056Z,7.00
2019-03-26T22:25:30.661Z,8.23
2019-03-26T22:28:00.040Z,8.10
2019-03-26T22:30:29.559Z,7.73
2019-03-26T22:32:59.305Z,7.47
2019-03-26T22:35:28.909Z,8.17
2019-03-26T22:37:58.291Z,8.73
2019-03-26T22:40:27.937Z,8.03
2019-03-26T22:42:57.328Z,8.97
2019-03-26T22:45:26.706Z,9.47
2019-03-26T22:47:56.562Z,9.65
2019-03-26T22:50:26.560Z,10.30
2019-03-26T22:52:56.266Z,9.37
2019-03-26T22:55:25.657Z,10.10
2019-03-26T22:57:55.147Z,8.80
2019-03-26T23:00:25.618Z,9.20
2019-03-26T23:02:55.017Z,9.13
2019-03-26T23:05:24.407Z,9.83
2019-03-26T23:07:53.798Z,10.20
2019-03-26T23:10:23.270Z,10.30
2019-03-26T23:12:52.648Z,9.73
2019-03-26T23:15:28.325Z,11.30
2019-03-26T23:17:57.708Z,12.03
2019-03-26T23:20:27.090Z,11.30
2019-03-26T23:22:56.451Z,10.53
2019-03-26T23:25:25.844Z,13.40
2019-03-26T23:27:55.222Z,13.45
2019-03-26T23:30:24.605Z,12.30
2019-03-26T23:32:53.981Z,12.47
2019-03-26T23:35:23.383Z,13.18
2019-03-26T23:37:52.760Z,13.20
2019-03-26T23:40:22.140Z,12.82
2019-03-26T23:42:51.510Z,13.65
2019-03-26T23:45:20.959Z,10.77
2019-03-26T23:47:50.332Z,9.57
2019-03-26T23:50:19.711Z,8.87
2019-03-26T23:52:49.091Z,8.23
2019-03-26T23:55:18.547Z,8.30
2019-03-26T23:57:47.927Z,9.67
